Half Moon — WDE8672 — position and weather

sailwx.info

Track history (hours):
 
Tides and Currents Weather Stations Pressure Air Temp Water Temp Dewpoint Dewpoint Depression Visibility Wind Speed Wind Dir Waves Ship Positions

Half Moon (USA)

Ship's website: http://www.halfmoon.mus.ny.us/

Owner: Holland Village, Inc., Lumberton, NC. More information available from US FCC via Universal Licensing System and Coast Guard Vessel Documentation Center.

Last reported at 2020-Jun-07 13:45 UTC. Time now 2020-Jul-03 20:49 UTC.
Position N 51°54' E 004°27'.
Warning: this ship's position is 26 days out of date.

Length 31 m; draft 2.6 m.

MMSI: 366464000.

Date/timePositionNaut miles runAvg speedWind from/ knotsBaromVisibWave heightAir tempDewpointWater temp
2020-Jun-07 13:45N 51°54' E 004°27'0 0.0
2020-Jun-07 13:00N 51°54' E 004°27'0 0.0
2020-Jun-07 11:00N 51°54' E 004°27'0 0.2
2020-Jun-07 10:30N 51°55' E 004°27'0 0.9
2020-Jun-07 09:58N 51°54' E 004°28'1 0.7
2020-Jun-07 08:29N 51°55' E 004°30'0 0.8
2020-Jun-07 08:00N 51°55' E 004°30'0 0.0
2020-Jun-07 04:58N 51°55' E 004°30'0 0.0
2020-Jun-07 04:28N 51°55' E 004°30'0 0.0
2020-Jun-07 02:58N 51°55' E 004°30'0 0.0
2020-Jun-06 21:58N 51°55' E 004°30'0 0.0
2020-Jun-06 21:28N 51°55' E 004°30'0 0.0
2020-Jun-06 20:58N 51°55' E 004°30'0 0.0
2020-Jun-06 19:58N 51°55' E 004°30'0 0.0
2020-Jun-06 16:28N 51°55' E 004°30'0 0.0
2020-Jun-06 14:01N 51°55' E 004°30'0 0.0
2020-Jun-06 13:31N 51°55' E 004°30'0 0.0
2020-Jun-06 13:00N 51°55' E 004°30'0 0.4
2020-Jun-06 12:31N 51°55' E 004°30'3 0.6
2020-Jun-06 08:00N 51°55' E 004°35'0 0.0
2020-Jun-06 07:30N 51°55' E 004°35'0 0.0
2020-Jun-06 04:30N 51°55' E 004°35'0 0.0
2020-Jun-06 03:30N 51°55' E 004°35'0 0.0
2020-Jun-06 03:01N 51°55' E 004°35'0 0.0
2020-Jun-06 02:30N 51°55' E 004°35'0 0.0
2020-Jun-06 01:00N 51°55' E 004°35'0 0.0
2020-Jun-06 00:30N 51°55' E 004°35'1 0.1
2020-Jun-05 18:30N 51°55' E 004°36'2 4.3
2020-Jun-05 18:00N 51°57' E 004°38'2 3.4
2020-Jun-05 17:30N 51°59' E 004°39'3 1.9
2020-Jun-05 16:00N 52°01' E 004°41'5 2.6
2020-Jun-05 14:00N 52°06' E 004°40'6 4.0
2020-Jun-05 12:30N 52°12' E 004°39'6 4.4
2020-Jun-05 11:14N 52°16' E 004°45'3 0.7
2020-Jun-05 06:27N 52°19' E 004°49'0 0.0
2020-Jun-05 04:37N 52°19' E 004°49'2 0.6
2020-Jun-05 00:30N 52°21' E 004°51'3 2.6
2020-Jun-04 23:30N 52°23' E 004°53'0 0.0
2020-Jun-04 21:00N 52°23' E 004°53'0 0.0
2020-Jun-04 19:30N 52°23' E 004°53'0 0.0
2020-Jun-04 18:30N 52°23' E 004°53'0 0.1
2020-Jun-04 16:30N 52°24' E 004°53'3 1.1
2020-Jun-04 13:30N 52°22' E 004°58'4 4.3
2020-Jun-04 12:30N 52°24' E 005°05'  
Track history (hours):
 
Tides and Currents Weather Stations Pressure Air Temp Water Temp Dewpoint Dewpoint Depression Visibility Wind Speed Wind Dir Waves Ship Positions

Half Moon (USA)

Ship's website: http://www.halfmoon.mus.ny.us/

Owner: Holland Village, Inc., Lumberton, NC. More information available from US FCC via Universal Licensing System and Coast Guard Vessel Documentation Center.

Last reported at 2020-Jun-07 13:45 UTC. Time now 2020-Jul-03 20:49 UTC.
Position N 51°54' E 004°27'.
Warning: this ship's position is 26 days out of date.

Length 31 m; draft 2.6 m.

MMSI: 366464000.

Date/timePositionNaut miles runAvg speedWind from/ knotsBaromVisibWave heightAir tempDewpointWater temp
2020-Jun-07 13:45N 51°54' E 004°27'0 0.0
2020-Jun-07 13:00N 51°54' E 004°27'0 0.0
2020-Jun-07 11:00N 51°54' E 004°27'0 0.2
2020-Jun-07 10:30N 51°55' E 004°27'0 0.9
2020-Jun-07 09:58N 51°54' E 004°28'1 0.7
2020-Jun-07 08:29N 51°55' E 004°30'0 0.8
2020-Jun-07 08:00N 51°55' E 004°30'0 0.0
2020-Jun-07 04:58N 51°55' E 004°30'0 0.0
2020-Jun-07 04:28N 51°55' E 004°30'0 0.0
2020-Jun-07 02:58N 51°55' E 004°30'0 0.0
2020-Jun-06 21:58N 51°55' E 004°30'0 0.0
2020-Jun-06 21:28N 51°55' E 004°30'0 0.0
2020-Jun-06 20:58N 51°55' E 004°30'0 0.0
2020-Jun-06 19:58N 51°55' E 004°30'0 0.0
2020-Jun-06 16:28N 51°55' E 004°30'0 0.0
2020-Jun-06 14:01N 51°55' E 004°30'0 0.0
2020-Jun-06 13:31N 51°55' E 004°30'0 0.0
2020-Jun-06 13:00N 51°55' E 004°30'0 0.4
2020-Jun-06 12:31N 51°55' E 004°30'3 0.6
2020-Jun-06 08:00N 51°55' E 004°35'0 0.0
2020-Jun-06 07:30N 51°55' E 004°35'0 0.0
2020-Jun-06 04:30N 51°55' E 004°35'0 0.0
2020-Jun-06 03:30N 51°55' E 004°35'0 0.0
2020-Jun-06 03:01N 51°55' E 004°35'0 0.0
2020-Jun-06 02:30N 51°55' E 004°35'0 0.0
2020-Jun-06 01:00N 51°55' E 004°35'0 0.0
2020-Jun-06 00:30N 51°55' E 004°35'1 0.1
2020-Jun-05 18:30N 51°55' E 004°36'2 4.3
2020-Jun-05 18:00N 51°57' E 004°38'2 3.4
2020-Jun-05 17:30N 51°59' E 004°39'3 1.9
2020-Jun-05 16:00N 52°01' E 004°41'5 2.6
2020-Jun-05 14:00N 52°06' E 004°40'6 4.0
2020-Jun-05 12:30N 52°12' E 004°39'6 4.4
2020-Jun-05 11:14N 52°16' E 004°45'3 0.7
2020-Jun-05 06:27N 52°19' E 004°49'0 0.0
2020-Jun-05 04:37N 52°19' E 004°49'2 0.6
2020-Jun-05 00:30N 52°21' E 004°51'3 2.6
2020-Jun-04 23:30N 52°23' E 004°53'0 0.0
2020-Jun-04 21:00N 52°23' E 004°53'0 0.0
2020-Jun-04 19:30N 52°23' E 004°53'0 0.0
2020-Jun-04 18:30N 52°23' E 004°53'0 0.1
2020-Jun-04 16:30N 52°24' E 004°53'3 1.1
2020-Jun-04 13:30N 52°22' E 004°58'4 4.3
2020-Jun-04 12:30N 52°24' E 005°05'  

Dump ship's entire track history